sensor_id;sensor_type;location;lat;lon;timestamp;P1;P2;P0
47982;PMS5003;33751;50.816;-1.214;2024-01-30T00:02:20;6;5;
47982;PMS5003;33751;50.816;-1.214;2024-01-30T00:04:48;4;4;
47982;PMS5003;33751;50.816;-1.214;2024-01-30T00:07:14;7;7;
47982;PMS5003;33751;50.816;-1.214;2024-01-30T00:09:41;6;6;
47982;PMS5003;33751;50.816;-1.214;2024-01-30T00:12:07;5;5;
47982;PMS5003;33751;50.816;-1.214;2024-01-30T00:14:34;8;5;
47982;PMS5003;33751;50.816;-1.214;2024-01-30T00:17:01;7;7;
47982;PMS5003;33751;50.816;-1.214;2024-01-30T00:19:28;13;5;
47982;PMS5003;33751;50.816;-1.214;2024-01-30T00:21:55;4;4;
47982;PMS5003;33751;50.816;-1.214;2024-01-30T00:24:21;8;7;
47982;PMS5003;33751;50.816;-1.214;2024-01-30T00:26:48;6;6;
47982;PMS5003;33751;50.816;-1.214;2024-01-30T00:29:14;5;4;
47982;PMS5003;33751;50.816;-1.214;2024-01-30T00:31:41;7;5;
47982;PMS5003;33751;50.816;-1.214;2024-01-30T00:34:08;3;3;
47982;PMS5003;33751;50.816;-1.214;2024-01-30T00:36:35;4;4;
47982;PMS5003;33751;50.816;-1.214;2024-01-30T00:39:01;4;4;
47982;PMS5003;33751;50.816;-1.214;2024-01-30T00:41:28;6;4;
47982;PMS5003;33751;50.816;-1.214;2024-01-30T00:43:56;6;4;
47982;PMS5003;33751;50.816;-1.214;2024-01-30T00:46:22;4;4;
47982;PMS5003;33751;50.816;-1.214;2024-01-30T00:48:49;6;6;
47982;PMS5003;33751;50.816;-1.214;2024-01-30T00:51:16;4;4;
47982;PMS5003;33751;50.816;-1.214;2024-01-30T00:53:43;5;5;
47982;PMS5003;33751;50.816;-1.214;2024-01-30T00:56:10;3;3;
47982;PMS5003;33751;50.816;-1.214;2024-01-30T00:58:37;4;3;
47982;PMS5003;33751;50.816;-1.214;2024-01-30T01:01:04;14;6;
47982;PMS5003;33751;50.816;-1.214;2024-01-30T01:03:30;7;4;
47982;PMS5003;33751;50.816;-1.214;2024-01-30T01:05:57;4;4;
47982;PMS5003;33751;50.816;-1.214;2024-01-30T01:08:23;2;2;
47982;PMS5003;33751;50.816;-1.214;2024-01-30T01:10:50;4;4;
47982;PMS5003;33751;50.816;-1.214;2024-01-30T01:13:16;4;4;
47982;PMS5003;33751;50.816;-1.214;2024-01-30T01:15:43;3;3;
47982;PMS5003;33751;50.816;-1.214;2024-01-30T01:18:10;3;2;
47982;PMS5003;33751;50.816;-1.214;2024-01-30T01:20:37;4;3;
47982;PMS5003;33751;50.816;-1.214;2024-01-30T01:23:03;4;4;
47982;PMS5003;33751;50.816;-1.214;2024-01-30T01:25:30;6;2;
47982;PMS5003;33751;50.816;-1.214;2024-01-30T01:27:57;10;3;
47982;PMS5003;33751;50.816;-1.214;2024-01-30T01:30:24;3;3;
47982;PMS5003;33751;50.816;-1.214;2024-01-30T01:32:50;3;3;
47982;PMS5003;33751;50.816;-1.214;2024-01-30T01:35:17;4;3;
47982;PMS5003;33751;50.816;-1.214;2024-01-30T01:37:43;3;2;
47982;PMS5003;33751;50.816;-1.214;2024-01-30T01:40:10;5;5;
47982;PMS5003;33751;50.816;-1.214;2024-01-30T01:42:37;2;2;
47982;PMS5003;33751;50.816;-1.214;2024-01-30T01:45:04;10;3;
47982;PMS5003;33751;50.816;-1.214;2024-01-30T01:47:31;4;4;
47982;PMS5003;33751;50.816;-1.214;2024-01-30T01:49:58;4;3;
47982;PMS5003;33751;50.816;-1.214;2024-01-30T01:52:25;4;2;
47982;PMS5003;33751;50.816;-1.214;2024-01-30T01:54:51;4;4;
47982;PMS5003;33751;50.816;-1.214;2024-01-30T01:57:19;4;3;
47982;PMS5003;33751;50.816;-1.214;2024-01-30T01:59:46;2;1;
47982;PMS5003;33751;50.816;-1.214;2024-01-30T02:02:14;2;2;
47982;PMS5003;33751;50.816;-1.214;2024-01-30T02:04:43;3;2;
47982;PMS5003;33751;50.816;-1.214;2024-01-30T02:07:11;3;3;
47982;PMS5003;33751;50.816;-1.214;2024-01-30T02:09:37;2;2;
47982;PMS5003;33751;50.816;-1.214;2024-01-30T02:12:04;2;2;
47982;PMS5003;33751;50.816;-1.214;2024-01-30T02:14:31;1;1;
47982;PMS5003;33751;50.816;-1.214;2024-01-30T02:16:57;1;1;
47982;PMS5003;33751;50.816;-1.214;2024-01-30T02:19:24;3;1;
47982;PMS5003;33751;50.816;-1.214;2024-01-30T02:21:50;2;2;
47982;PMS5003;33751;50.816;-1.214;2024-01-30T02:24:19;0;0;
47982;PMS5003;33751;50.816;-1.214;2024-01-30T02:26:45;2;2;
47982;PMS5003;33751;50.816;-1.214;2024-01-30T02:29:12;2;2;
47982;PMS5003;33751;50.816;-1.214;2024-01-30T02:31:38;1;1;
47982;PMS5003;33751;50.816;-1.214;2024-01-30T02:34:04;2;2;
47982;PMS5003;33751;50.816;-1.214;2024-01-30T02:36:31;1;1;
47982;PMS5003;33751;50.816;-1.214;2024-01-30T02:38:57;1;1;
47982;PMS5003;33751;50.816;-1.214;2024-01-30T02:41:24;1;1;
47982;PMS5003;33751;50.816;-1.214;2024-01-30T02:43:50;0;0;
47982;PMS5003;33751;50.816;-1.214;2024-01-30T02:46:17;1;1;
47982;PMS5003;33751;50.816;-1.214;2024-01-30T02:48:44;2;1;
47982;PMS5003;33751;50.816;-1.214;2024-01-30T02:51:11;1;1;
47982;PMS5003;33751;50.816;-1.214;2024-01-30T02:53:38;2;2;
47982;PMS5003;33751;50.816;-1.214;2024-01-30T02:56:05;3;3;
47982;PMS5003;33751;50.816;-1.214;2024-01-30T02:58:32;2;2;
47982;PMS5003;33751;50.816;-1.214;2024-01-30T03:00:58;2;2;
47982;PMS5003;33751;50.816;-1.214;2024-01-30T03:03:26;1;1;
47982;PMS5003;33751;50.816;-1.214;2024-01-30T03:05:53;1;1;
47982;PMS5003;33751;50.816;-1.214;2024-01-30T03:08:20;2;1;
47982;PMS5003;33751;50.816;-1.214;2024-01-30T03:10:47;0;0;
47982;PMS5003;33751;50.816;-1.214;2024-01-30T03:13:13;0;0;
47982;PMS5003;33751;50.816;-1.214;2024-01-30T03:15:40;1;1;
47982;PMS5003;33751;50.816;-1.214;2024-01-30T03:18:07;1;1;
47982;PMS5003;33751;50.816;-1.214;2024-01-30T03:20:33;3;3;
47982;PMS5003;33751;50.816;-1.214;2024-01-30T03:23:00;3;2;
47982;PMS5003;33751;50.816;-1.214;2024-01-30T03:25:27;1;1;
47982;PMS5003;33751;50.816;-1.214;2024-01-30T03:27:55;1;1;
47982;PMS5003;33751;50.816;-1.214;2024-01-30T03:30:21;5;1;
47982;PMS5003;33751;50.816;-1.214;2024-01-30T03:32:48;1;0;
47982;PMS5003;33751;50.816;-1.214;2024-01-30T03:35:14;1;1;
47982;PMS5003;33751;50.816;-1.214;2024-01-30T03:37:41;2;0;
47982;PMS5003;33751;50.816;-1.214;2024-01-30T03:40:08;1;1;
47982;PMS5003;33751;50.816;-1.214;2024-01-30T03:42:36;1;1;
47982;PMS5003;33751;50.816;-1.214;2024-01-30T03:45:03;1;1;
47982;PMS5003;33751;50.816;-1.214;2024-01-30T03:47:31;1;1;
47982;PMS5003;33751;50.816;-1.214;2024-01-30T03:49:57;0;0;
47982;PMS5003;33751;50.816;-1.214;2024-01-30T03:52:24;3;2;
47982;PMS5003;33751;50.816;-1.214;2024-01-30T03:54:50;2;2;
47982;PMS5003;33751;50.816;-1.214;2024-01-30T03:57:17;1;1;
47982;PMS5003;33751;50.816;-1.214;2024-01-30T03:59:43;2;2;
47982;PMS5003;33751;50.816;-1.214;2024-01-30T04:02:10;1;1;
47982;PMS5003;33751;50.816;-1.214;2024-01-30T04:04:37;0;0;
47982;PMS5003;33751;50.816;-1.214;2024-01-30T04:07:04;1;1;
47982;PMS5003;33751;50.816;-1.214;2024-01-30T04:09:31;0;0;
47982;PMS5003;33751;50.816;-1.214;2024-01-30T04:11:58;1;1;
47982;PMS5003;33751;50.816;-1.214;2024-01-30T04:14:25;1;1;
47982;PMS5003;33751;50.816;-1.214;2024-01-30T04:16:52;1;1;
47982;PMS5003;33751;50.816;-1.214;2024-01-30T04:19:20;1;1;
47982;PMS5003;33751;50.816;-1.214;2024-01-30T04:21:47;1;1;
47982;PMS5003;33751;50.816;-1.214;2024-01-30T04:24:13;2;2;
47982;PMS5003;33751;50.816;-1.214;2024-01-30T04:26:40;0;0;
47982;PMS5003;33751;50.816;-1.214;2024-01-30T04:29:07;0;0;
47982;PMS5003;33751;50.816;-1.214;2024-01-30T04:31:36;2;1;
47982;PMS5003;33751;50.816;-1.214;2024-01-30T04:34:02;2;2;
47982;PMS5003;33751;50.816;-1.214;2024-01-30T04:36:29;0;0;
47982;PMS5003;33751;50.816;-1.214;2024-01-30T04:38:55;1;1;
47982;PMS5003;33751;50.816;-1.214;2024-01-30T04:41:22;1;0;
47982;PMS5003;33751;50.816;-1.214;2024-01-30T04:43:49;8;1;
47982;PMS5003;33751;50.816;-1.214;2024-01-30T04:46:15;0;0;
47982;PMS5003;33751;50.816;-1.214;2024-01-30T04:48:42;1;1;
47982;PMS5003;33751;50.816;-1.214;2024-01-30T04:51:08;0;0;
47982;PMS5003;33751;50.816;-1.214;2024-01-30T04:53:35;0;0;
47982;PMS5003;33751;50.816;-1.214;2024-01-30T04:56:01;0;0;
47982;PMS5003;33751;50.816;-1.214;2024-01-30T04:58:29;1;1;
47982;PMS5003;33751;50.816;-1.214;2024-01-30T05:00:55;0;0;
47982;PMS5003;33751;50.816;-1.214;2024-01-30T05:03:22;0;0;
47982;PMS5003;33751;50.816;-1.214;2024-01-30T05:05:49;0;0;
47982;PMS5003;33751;50.816;-1.214;2024-01-30T05:08:16;0;0;
47982;PMS5003;33751;50.816;-1.214;2024-01-30T05:10:44;0;0;
47982;PMS5003;33751;50.816;-1.214;2024-01-30T05:13:10;0;0;
47982;PMS5003;33751;50.816;-1.214;2024-01-30T05:15:36;0;0;
47982;PMS5003;33751;50.816;-1.214;2024-01-30T05:18:04;0;0;
47982;PMS5003;33751;50.816;-1.214;2024-01-30T05:20:31;0;0;
47982;PMS5003;33751;50.816;-1.214;2024-01-30T05:22:58;1;1;
47982;PMS5003;33751;50.816;-1.214;2024-01-30T05:25:26;0;0;
47982;PMS5003;33751;50.816;-1.214;2024-01-30T05:27:52;1;1;
47982;PMS5003;33751;50.816;-1.214;2024-01-30T05:30:19;0;0;
47982;PMS5003;33751;50.816;-1.214;2024-01-30T05:32:45;0;0;
47982;PMS5003;33751;50.816;-1.214;2024-01-30T05:35:12;0;0;
47982;PMS5003;33751;50.816;-1.214;2024-01-30T05:37:39;1;1;
47982;PMS5003;33751;50.816;-1.214;2024-01-30T05:40:06;1;1;
47982;PMS5003;33751;50.816;-1.214;2024-01-30T05:42:33;1;1;
47982;PMS5003;33751;50.816;-1.214;2024-01-30T05:45:00;0;0;
47982;PMS5003;33751;50.816;-1.214;2024-01-30T05:47:26;1;0;
47982;PMS5003;33751;50.816;-1.214;2024-01-30T05:49:54;1;1;
47982;PMS5003;33751;50.816;-1.214;2024-01-30T05:52:21;0;0;
47982;PMS5003;33751;50.816;-1.214;2024-01-30T05:54:47;0;0;
47982;PMS5003;33751;50.816;-1.214;2024-01-30T05:57:14;1;1;
47982;PMS5003;33751;50.816;-1.214;2024-01-30T05:59:40;0;0;
47982;PMS5003;33751;50.816;-1.214;2024-01-30T06:02:07;0;0;
47982;PMS5003;33751;50.816;-1.214;2024-01-30T06:04:34;1;1;
47982;PMS5003;33751;50.816;-1.214;2024-01-30T06:07:01;0;0;
47982;PMS5003;33751;50.816;-1.214;2024-01-30T06:09:28;0;0;
47982;PMS5003;33751;50.816;-1.214;2024-01-30T06:11:54;0;0;
47982;PMS5003;33751;50.816;-1.214;2024-01-30T06:14:21;1;1;
47982;PMS5003;33751;50.816;-1.214;2024-01-30T06:16:47;0;0;
47982;PMS5003;33751;50.816;-1.214;2024-01-30T06:19:15;0;0;
47982;PMS5003;33751;50.816;-1.214;2024-01-30T06:21:42;0;0;
47982;PMS5003;33751;50.816;-1.214;2024-01-30T06:24:08;0;0;
47982;PMS5003;33751;50.816;-1.214;2024-01-30T06:26:35;0;0;
47982;PMS5003;33751;50.816;-1.214;2024-01-30T06:29:02;0;0;
47982;PMS5003;33751;50.816;-1.214;2024-01-30T06:31:29;1;1;
47982;PMS5003;33751;50.816;-1.214;2024-01-30T06:33:56;1;1;
47982;PMS5003;33751;50.816;-1.214;2024-01-30T06:36:22;0;0;
47982;PMS5003;33751;50.816;-1.214;2024-01-30T06:38:49;0;0;
47982;PMS5003;33751;50.816;-1.214;2024-01-30T06:41:16;0;0;
47982;PMS5003;33751;50.816;-1.214;2024-01-30T06:43:43;2;2;
47982;PMS5003;33751;50.816;-1.214;2024-01-30T06:46:09;0;0;
47982;PMS5003;33751;50.816;-1.214;2024-01-30T06:48:36;0;0;
47982;PMS5003;33751;50.816;-1.214;2024-01-30T06:51:03;0;0;
47982;PMS5003;33751;50.816;-1.214;2024-01-30T06:53:29;0;0;
47982;PMS5003;33751;50.816;-1.214;2024-01-30T06:55:57;0;0;
47982;PMS5003;33751;50.816;-1.214;2024-01-30T06:58:24;0;0;
47982;PMS5003;33751;50.816;-1.214;2024-01-30T07:00:51;0;0;
47982;PMS5003;33751;50.816;-1.214;2024-01-30T07:03:18;0;0;
47982;PMS5003;33751;50.816;-1.214;2024-01-30T07:05:44;0;0;
47982;PMS5003;33751;50.816;-1.214;2024-01-30T07:08:11;1;1;
47982;PMS5003;33751;50.816;-1.214;2024-01-30T07:10:37;0;0;
47982;PMS5003;33751;50.816;-1.214;2024-01-30T07:13:04;0;0;
47982;PMS5003;33751;50.816;-1.214;2024-01-30T07:15:31;1;0;
47982;PMS5003;33751;50.816;-1.214;2024-01-30T07:17:57;0;0;
47982;PMS5003;33751;50.816;-1.214;2024-01-30T07:20:24;0;0;
47982;PMS5003;33751;50.816;-1.214;2024-01-30T07:22:51;0;0;
47982;PMS5003;33751;50.816;-1.214;2024-01-30T07:25:18;0;0;
47982;PMS5003;33751;50.816;-1.214;2024-01-30T07:27:44;0;0;
47982;PMS5003;33751;50.816;-1.214;2024-01-30T07:30:11;0;0;
47982;PMS5003;33751;50.816;-1.214;2024-01-30T07:32:38;0;0;
47982;PMS5003;33751;50.816;-1.214;2024-01-30T07:35:05;0;0;
47982;PMS5003;33751;50.816;-1.214;2024-01-30T07:37:32;0;0;
47982;PMS5003;33751;50.816;-1.214;2024-01-30T07:39:58;0;0;
47982;PMS5003;33751;50.816;-1.214;2024-01-30T07:42:25;0;0;
47982;PMS5003;33751;50.816;-1.214;2024-01-30T07:44:51;0;0;
47982;PMS5003;33751;50.816;-1.214;2024-01-30T07:47:17;0;0;
47982;PMS5003;33751;50.816;-1.214;2024-01-30T07:49:44;1;0;
47982;PMS5003;33751;50.816;-1.214;2024-01-30T07:52:11;0;0;
47982;PMS5003;33751;50.816;-1.214;2024-01-30T07:54:39;0;0;
47982;PMS5003;33751;50.816;-1.214;2024-01-30T07:57:06;0;0;
47982;PMS5003;33751;50.816;-1.214;2024-01-30T07:59:33;1;0;
47982;PMS5003;33751;50.816;-1.214;2024-01-30T08:02:00;1;1;
47982;PMS5003;33751;50.816;-1.214;2024-01-30T08:04:27;2;2;
47982;PMS5003;33751;50.816;-1.214;2024-01-30T08:06:54;5;3;
47982;PMS5003;33751;50.816;-1.214;2024-01-30T08:09:22;11;4;
47982;PMS5003;33751;50.816;-1.214;2024-01-30T08:11:48;3;3;
47982;PMS5003;33751;50.816;-1.214;2024-01-30T08:14:15;5;2;
47982;PMS5003;33751;50.816;-1.214;2024-01-30T08:16:42;4;2;
47982;PMS5003;33751;50.816;-1.214;2024-01-30T08:19:08;2;2;
47982;PMS5003;33751;50.816;-1.214;2024-01-30T08:21:35;1;1;
47982;PMS5003;33751;50.816;-1.214;2024-01-30T08:24:03;3;3;
47982;PMS5003;33751;50.816;-1.214;2024-01-30T08:26:31;1;1;
47982;PMS5003;33751;50.816;-1.214;2024-01-30T08:28:58;3;1;
47982;PMS5003;33751;50.816;-1.214;2024-01-30T08:31:24;9;4;
47982;PMS5003;33751;50.816;-1.214;2024-01-30T08:33:52;9;2;
47982;PMS5003;33751;50.816;-1.214;2024-01-30T08:36:19;2;1;
47982;PMS5003;33751;50.816;-1.214;2024-01-30T08:38:46;1;1;
47982;PMS5003;33751;50.816;-1.214;2024-01-30T08:41:13;1;1;
47982;PMS5003;33751;50.816;-1.214;2024-01-30T08:43:40;2;2;
47982;PMS5003;33751;50.816;-1.214;2024-01-30T08:46:07;1;1;
47982;PMS5003;33751;50.816;-1.214;2024-01-30T08:48:35;0;0;
47982;PMS5003;33751;50.816;-1.214;2024-01-30T08:51:02;3;2;
47982;PMS5003;33751;50.816;-1.214;2024-01-30T08:53:29;1;1;
47982;PMS5003;33751;50.816;-1.214;2024-01-30T08:55:56;1;1;
47982;PMS5003;33751;50.816;-1.214;2024-01-30T08:58:23;2;1;
47982;PMS5003;33751;50.816;-1.214;2024-01-30T09:00:49;2;1;
47982;PMS5003;33751;50.816;-1.214;2024-01-30T09:03:16;1;1;
47982;PMS5003;33751;50.816;-1.214;2024-01-30T09:05:42;1;1;
47982;PMS5003;33751;50.816;-1.214;2024-01-30T09:08:09;3;1;
47982;PMS5003;33751;50.816;-1.214;2024-01-30T09:10:35;0;0;
47982;PMS5003;33751;50.816;-1.214;2024-01-30T09:13:01;0;0;
47982;PMS5003;33751;50.816;-1.214;2024-01-30T09:15:28;3;0;
47982;PMS5003;33751;50.816;-1.214;2024-01-30T09:17:54;1;1;
47982;PMS5003;33751;50.816;-1.214;2024-01-30T09:20:22;0;0;
47982;PMS5003;33751;50.816;-1.214;2024-01-30T09:22:48;1;1;
47982;PMS5003;33751;50.816;-1.214;2024-01-30T09:25:15;0;0;
47982;PMS5003;33751;50.816;-1.214;2024-01-30T09:27:42;0;0;
47982;PMS5003;33751;50.816;-1.214;2024-01-30T09:30:09;0;0;
47982;PMS5003;33751;50.816;-1.214;2024-01-30T09:32:37;0;0;
47982;PMS5003;33751;50.816;-1.214;2024-01-30T09:35:04;1;1;
47982;PMS5003;33751;50.816;-1.214;2024-01-30T09:37:31;2;1;
47982;PMS5003;33751;50.816;-1.214;2024-01-30T09:39:57;1;1;
47982;PMS5003;33751;50.816;-1.214;2024-01-30T09:42:26;1;1;
47982;PMS5003;33751;50.816;-1.214;2024-01-30T09:44:58;1;1;
47982;PMS5003;33751;50.816;-1.214;2024-01-30T09:47:26;0;0;
47982;PMS5003;33751;50.816;-1.214;2024-01-30T09:49:53;4;1;
47982;PMS5003;33751;50.816;-1.214;2024-01-30T09:52:21;1;1;
47982;PMS5003;33751;50.816;-1.214;2024-01-30T09:54:48;0;0;
47982;PMS5003;33751;50.816;-1.214;2024-01-30T09:57:17;0;0;
47982;PMS5003;33751;50.816;-1.214;2024-01-30T09:59:44;0;0;
47982;PMS5003;33751;50.816;-1.214;2024-01-30T10:02:11;1;1;
47982;PMS5003;33751;50.816;-1.214;2024-01-30T10:04:38;5;4;
47982;PMS5003;33751;50.816;-1.214;2024-01-30T10:07:05;4;2;
47982;PMS5003;33751;50.816;-1.214;2024-01-30T10:09:33;2;2;
47982;PMS5003;33751;50.816;-1.214;2024-01-30T10:12:00;6;2;
47982;PMS5003;33751;50.816;-1.214;2024-01-30T10:14:28;6;4;
47982;PMS5003;33751;50.816;-1.214;2024-01-30T10:16:55;6;4;
47982;PMS5003;33751;50.816;-1.214;2024-01-30T10:19:22;4;1;
47982;PMS5003;33751;50.816;-1.214;2024-01-30T10:21:49;4;3;
47982;PMS5003;33751;50.816;-1.214;2024-01-30T10:24:16;4;2;
47982;PMS5003;33751;50.816;-1.214;2024-01-30T10:26:43;4;2;
47982;PMS5003;33751;50.816;-1.214;2024-01-30T10:29:11;3;2;
47982;PMS5003;33751;50.816;-1.214;2024-01-30T10:31:37;5;2;
47982;PMS5003;33751;50.816;-1.214;2024-01-30T10:34:04;3;2;
47982;PMS5003;33751;50.816;-1.214;2024-01-30T10:36:31;2;2;
47982;PMS5003;33751;50.816;-1.214;2024-01-30T10:39:06;1;1;
47982;PMS5003;33751;50.816;-1.214;2024-01-30T10:41:35;0;0;
47982;PMS5003;33751;50.816;-1.214;2024-01-30T10:44:09;3;3;
47982;PMS5003;33751;50.816;-1.214;2024-01-30T10:46:37;4;1;
47982;PMS5003;33751;50.816;-1.214;2024-01-30T10:49:05;1;1;
47982;PMS5003;33751;50.816;-1.214;2024-01-30T10:51:32;3;3;
47982;PMS5003;33751;50.816;-1.214;2024-01-30T10:54:01;3;1;
47982;PMS5003;33751;50.816;-1.214;2024-01-30T10:56:31;2;2;
47982;PMS5003;33751;50.816;-1.214;2024-01-30T10:58:58;5;2;
47982;PMS5003;33751;50.816;-1.214;2024-01-30T11:01:25;2;2;
47982;PMS5003;33751;50.816;-1.214;2024-01-30T11:03:56;2;2;
47982;PMS5003;33751;50.816;-1.214;2024-01-30T11:06:23;2;2;
47982;PMS5003;33751;50.816;-1.214;2024-01-30T11:09:00;2;2;
47982;PMS5003;33751;50.816;-1.214;2024-01-30T11:11:27;3;2;
47982;PMS5003;33751;50.816;-1.214;2024-01-30T11:13:53;3;1;
47982;PMS5003;33751;50.816;-1.214;2024-01-30T11:16:21;1;1;
47982;PMS5003;33751;50.816;-1.214;2024-01-30T11:18:50;2;0;
47982;PMS5003;33751;50.816;-1.214;2024-01-30T11:21:17;2;2;
47982;PMS5003;33751;50.816;-1.214;2024-01-30T11:23:43;1;0;
47982;PMS5003;33751;50.816;-1.214;2024-01-30T11:26:11;0;0;
47982;PMS5003;33751;50.816;-1.214;2024-01-30T11:28:38;5;1;
47982;PMS5003;33751;50.816;-1.214;2024-01-30T11:31:04;2;2;
47982;PMS5003;33751;50.816;-1.214;2024-01-30T11:33:32;2;2;
47982;PMS5003;33751;50.816;-1.214;2024-01-30T11:35:59;1;1;
47982;PMS5003;33751;50.816;-1.214;2024-01-30T11:38:27;2;1;
47982;PMS5003;33751;50.816;-1.214;2024-01-30T11:40:56;0;0;
47982;PMS5003;33751;50.816;-1.214;2024-01-30T11:43:23;4;1;
47982;PMS5003;33751;50.816;-1.214;2024-01-30T11:45:51;1;1;
47982;PMS5003;33751;50.816;-1.214;2024-01-30T11:48:17;2;1;
47982;PMS5003;33751;50.816;-1.214;2024-01-30T11:50:44;1;1;
47982;PMS5003;33751;50.816;-1.214;2024-01-30T11:53:12;1;1;
47982;PMS5003;33751;50.816;-1.214;2024-01-30T11:55:39;3;1;
47982;PMS5003;33751;50.816;-1.214;2024-01-30T11:58:06;3;3;
47982;PMS5003;33751;50.816;-1.214;2024-01-30T12:00:33;2;2;
47982;PMS5003;33751;50.816;-1.214;2024-01-30T12:03:00;2;2;
47982;PMS5003;33751;50.816;-1.214;2024-01-30T12:05:27;4;2;
47982;PMS5003;33751;50.816;-1.214;2024-01-30T12:07:55;3;3;
47982;PMS5003;33751;50.816;-1.214;2024-01-30T12:10:23;4;2;
47982;PMS5003;33751;50.816;-1.214;2024-01-30T12:12:50;6;5;
47982;PMS5003;33751;50.816;-1.214;2024-01-30T12:15:18;4;2;
47982;PMS5003;33751;50.816;-1.214;2024-01-30T12:17:47;2;2;
47982;PMS5003;33751;50.816;-1.214;2024-01-30T12:20:15;3;3;
47982;PMS5003;33751;50.816;-1.214;2024-01-30T12:22:45;3;2;
47982;PMS5003;33751;50.816;-1.214;2024-01-30T12:25:13;3;2;
47982;PMS5003;33751;50.816;-1.214;2024-01-30T12:27:42;1;1;
47982;PMS5003;33751;50.816;-1.214;2024-01-30T12:30:11;9;4;
47982;PMS5003;33751;50.816;-1.214;2024-01-30T12:32:39;8;2;
47982;PMS5003;33751;50.816;-1.214;2024-01-30T12:35:07;6;3;
47982;PMS5003;33751;50.816;-1.214;2024-01-30T12:37:36;3;0;
47982;PMS5003;33751;50.816;-1.214;2024-01-30T12:40:04;4;3;
47982;PMS5003;33751;50.816;-1.214;2024-01-30T12:42:32;1;0;
47982;PMS5003;33751;50.816;-1.214;2024-01-30T12:44:59;3;3;
47982;PMS5003;33751;50.816;-1.214;2024-01-30T12:47:27;1;1;
47982;PMS5003;33751;50.816;-1.214;2024-01-30T12:49:56;5;2;
47982;PMS5003;33751;50.816;-1.214;2024-01-30T12:52:23;2;2;
47982;PMS5003;33751;50.816;-1.214;2024-01-30T12:54:51;5;4;
47982;PMS5003;33751;50.816;-1.214;2024-01-30T12:57:18;2;1;
47982;PMS5003;33751;50.816;-1.214;2024-01-30T12:59:45;2;2;
47982;PMS5003;33751;50.816;-1.214;2024-01-30T13:02:12;1;1;
47982;PMS5003;33751;50.816;-1.214;2024-01-30T13:04:39;2;2;
47982;PMS5003;33751;50.816;-1.214;2024-01-30T13:07:06;3;2;
47982;PMS5003;33751;50.816;-1.214;2024-01-30T13:09:34;4;4;
47982;PMS5003;33751;50.816;-1.214;2024-01-30T13:12:00;7;5;
47982;PMS5003;33751;50.816;-1.214;2024-01-30T13:14:26;9;7;
47982;PMS5003;33751;50.816;-1.214;2024-01-30T13:16:53;26;15;
47982;PMS5003;33751;50.816;-1.214;2024-01-30T13:19:20;19;12;
47982;PMS5003;33751;50.816;-1.214;2024-01-30T13:21:46;16;10;
47982;PMS5003;33751;50.816;-1.214;2024-01-30T13:24:13;16;12;
47982;PMS5003;33751;50.816;-1.214;2024-01-30T13:26:40;31;15;
47982;PMS5003;33751;50.816;-1.214;2024-01-30T13:29:08;17;10;
47982;PMS5003;33751;50.816;-1.214;2024-01-30T13:31:36;16;11;
47982;PMS5003;33751;50.816;-1.214;2024-01-30T13:34:02;23;12;
47982;PMS5003;33751;50.816;-1.214;2024-01-30T13:36:29;16;11;
47982;PMS5003;33751;50.816;-1.214;2024-01-30T13:38:57;15;13;
47982;PMS5003;33751;50.816;-1.214;2024-01-30T13:41:24;14;11;
47982;PMS5003;33751;50.816;-1.214;2024-01-30T13:43:51;10;6;
47982;PMS5003;33751;50.816;-1.214;2024-01-30T13:46:17;15;9;
47982;PMS5003;33751;50.816;-1.214;2024-01-30T13:48:44;14;12;
47982;PMS5003;33751;50.816;-1.214;2024-01-30T13:51:10;10;8;
47982;PMS5003;33751;50.816;-1.214;2024-01-30T13:53:37;15;9;
47982;PMS5003;33751;50.816;-1.214;2024-01-30T13:56:04;8;8;
47982;PMS5003;33751;50.816;-1.214;2024-01-30T13:58:31;10;9;
47982;PMS5003;33751;50.816;-1.214;2024-01-30T14:00:58;14;10;
47982;PMS5003;33751;50.816;-1.214;2024-01-30T14:03:25;15;11;
47982;PMS5003;33751;50.816;-1.214;2024-01-30T14:05:52;15;10;
47982;PMS5003;33751;50.816;-1.214;2024-01-30T14:08:19;15;8;
47982;PMS5003;33751;50.816;-1.214;2024-01-30T14:10:46;17;6;
47982;PMS5003;33751;50.816;-1.214;2024-01-30T14:13:13;19;10;
47982;PMS5003;33751;50.816;-1.214;2024-01-30T14:15:40;11;8;
47982;PMS5003;33751;50.816;-1.214;2024-01-30T14:18:07;10;9;
47982;PMS5003;33751;50.816;-1.214;2024-01-30T14:20:34;7;6;
47982;PMS5003;33751;50.816;-1.214;2024-01-30T14:23:00;8;8;
47982;PMS5003;33751;50.816;-1.214;2024-01-30T14:25:27;6;4;
47982;PMS5003;33751;50.816;-1.214;2024-01-30T14:27:55;9;6;
47982;PMS5003;33751;50.816;-1.214;2024-01-30T14:30:22;6;6;
47982;PMS5003;33751;50.816;-1.214;2024-01-30T14:32:49;7;7;
47982;PMS5003;33751;50.816;-1.214;2024-01-30T14:35:16;8;7;
47982;PMS5003;33751;50.816;-1.214;2024-01-30T14:37:43;11;6;
47982;PMS5003;33751;50.816;-1.214;2024-01-30T14:40:10;8;3;
47982;PMS5003;33751;50.816;-1.214;2024-01-30T14:42:37;9;5;
47982;PMS5003;33751;50.816;-1.214;2024-01-30T14:45:05;7;6;
47982;PMS5003;33751;50.816;-1.214;2024-01-30T14:47:32;6;6;
47982;PMS5003;33751;50.816;-1.214;2024-01-30T14:49:59;7;6;
47982;PMS5003;33751;50.816;-1.214;2024-01-30T14:52:26;8;6;
47982;PMS5003;33751;50.816;-1.214;2024-01-30T14:54:53;5;5;
47982;PMS5003;33751;50.816;-1.214;2024-01-30T14:57:21;10;7;
47982;PMS5003;33751;50.816;-1.214;2024-01-30T14:59:48;7;5;
47982;PMS5003;33751;50.816;-1.214;2024-01-30T15:02:15;7;4;
47982;PMS5003;33751;50.816;-1.214;2024-01-30T15:04:42;7;5;
47982;PMS5003;33751;50.816;-1.214;2024-01-30T15:07:08;5;5;
47982;PMS5003;33751;50.816;-1.214;2024-01-30T15:09:36;15;7;
47982;PMS5003;33751;50.816;-1.214;2024-01-30T15:12:02;7;5;
47982;PMS5003;33751;50.816;-1.214;2024-01-30T15:14:30;14;7;
47982;PMS5003;33751;50.816;-1.214;2024-01-30T15:16:56;12;5;
47982;PMS5003;33751;50.816;-1.214;2024-01-30T15:19:23;7;4;
47982;PMS5003;33751;50.816;-1.214;2024-01-30T15:21:50;9;7;
47982;PMS5003;33751;50.816;-1.214;2024-01-30T15:24:18;4;3;
47982;PMS5003;33751;50.816;-1.214;2024-01-30T15:26:44;6;4;
47982;PMS5003;33751;50.816;-1.214;2024-01-30T15:29:11;9;7;
47982;PMS5003;33751;50.816;-1.214;2024-01-30T15:31:39;7;5;
47982;PMS5003;33751;50.816;-1.214;2024-01-30T15:34:05;4;4;
47982;PMS5003;33751;50.816;-1.214;2024-01-30T15:36:32;5;3;
47982;PMS5003;33751;50.816;-1.214;2024-01-30T15:38:58;6;4;
47982;PMS5003;33751;50.816;-1.214;2024-01-30T15:41:25;4;4;
47982;PMS5003;33751;50.816;-1.214;2024-01-30T15:43:52;4;4;
47982;PMS5003;33751;50.816;-1.214;2024-01-30T15:46:19;5;3;
47982;PMS5003;33751;50.816;-1.214;2024-01-30T15:48:46;5;4;
47982;PMS5003;33751;50.816;-1.214;2024-01-30T15:51:12;8;3;
47982;PMS5003;33751;50.816;-1.214;2024-01-30T15:53:39;5;3;
47982;PMS5003;33751;50.816;-1.214;2024-01-30T15:56:06;6;5;
47982;PMS5003;33751;50.816;-1.214;2024-01-30T15:58:33;5;4;
47982;PMS5003;33751;50.816;-1.214;2024-01-30T16:00:59;5;2;
47982;PMS5003;33751;50.816;-1.214;2024-01-30T16:03:26;1;1;
47982;PMS5003;33751;50.816;-1.214;2024-01-30T16:05:53;4;4;
47982;PMS5003;33751;50.816;-1.214;2024-01-30T16:08:20;6;5;
47982;PMS5003;33751;50.816;-1.214;2024-01-30T16:10:46;5;4;
47982;PMS5003;33751;50.816;-1.214;2024-01-30T16:13:13;4;4;
47982;PMS5003;33751;50.816;-1.214;2024-01-30T16:15:40;10;4;
47982;PMS5003;33751;50.816;-1.214;2024-01-30T16:18:07;9;3;
47982;PMS5003;33751;50.816;-1.214;2024-01-30T16:20:34;7;5;
47982;PMS5003;33751;50.816;-1.214;2024-01-30T16:23:01;6;4;
47982;PMS5003;33751;50.816;-1.214;2024-01-30T16:25:28;7;3;
47982;PMS5003;33751;50.816;-1.214;2024-01-30T16:27:55;5;3;
47982;PMS5003;33751;50.816;-1.214;2024-01-30T16:30:22;3;2;